createdAt,value
2018-07-14T00:01:10.858Z,52.90
2018-07-14T00:03:40.057Z,53.10
2018-07-14T00:06:08.636Z,53.30
2018-07-14T00:08:37.272Z,53.30
2018-07-14T00:11:05.952Z,53.50
2018-07-14T00:13:34.678Z,53.50
2018-07-14T00:16:03.315Z,53.60
2018-07-14T00:18:31.886Z,53.60
2018-07-14T00:21:00.428Z,53.70
2018-07-14T00:23:29.102Z,53.70
2018-07-14T00:26:00.521Z,53.80
2018-07-14T00:28:30.562Z,54.00
2018-07-14T00:30:59.250Z,54.50
2018-07-14T00:33:28.137Z,54.00
2018-07-14T00:35:56.701Z,54.20
2018-07-14T00:38:25.680Z,54.20
2018-07-14T00:40:54.623Z,54.20
2018-07-14T00:43:23.260Z,55.00
2018-07-14T00:45:52.183Z,54.40
2018-07-14T00:48:20.855Z,54.50
2018-07-14T00:50:49.447Z,54.60
2018-07-14T00:53:18.548Z,54.60
2018-07-14T00:55:47.389Z,54.70
2018-07-14T00:58:16.281Z,54.70
2018-07-14T01:00:46.102Z,54.80
2018-07-14T01:03:15.331Z,54.80
2018-07-14T01:05:43.842Z,54.90
2018-07-14T01:08:12.408Z,54.90
2018-07-14T01:10:40.965Z,54.90
2018-07-14T01:13:09.620Z,55.00
2018-07-14T01:15:38.272Z,55.00
2018-07-14T01:18:07.886Z,55.00
2018-07-14T01:20:36.425Z,55.00
2018-07-14T01:23:04.992Z,55.10
2018-07-14T01:25:33.557Z,55.20
2018-07-14T01:28:02.457Z,55.40
2018-07-14T01:30:30.985Z,55.30
2018-07-14T01:32:59.587Z,55.40
2018-07-14T01:35:28.192Z,55.50
2018-07-14T01:37:57.161Z,55.50
2018-07-14T01:40:25.740Z,55.50
2018-07-14T01:42:54.230Z,55.50
2018-07-14T01:45:23.281Z,55.50
2018-07-14T01:47:52.400Z,55.50
2018-07-14T01:50:20.943Z,55.70
2018-07-14T01:52:49.827Z,56.50
2018-07-14T01:55:18.444Z,56.10
2018-07-14T01:57:47.237Z,56.10
2018-07-14T02:00:15.840Z,56.30
2018-07-14T02:02:44.405Z,56.40
2018-07-14T02:05:12.948Z,56.40
2018-07-14T02:07:41.677Z,56.50
2018-07-14T02:10:10.664Z,56.60
2018-07-14T02:12:39.704Z,56.70
2018-07-14T02:15:08.701Z,56.70
2018-07-14T02:17:37.612Z,56.80
2018-07-14T02:20:06.340Z,57.60
2018-07-14T02:22:35.604Z,57.20
2018-07-14T02:25:05.407Z,57.10
2018-07-14T02:27:34.062Z,57.50
2018-07-14T02:30:02.734Z,57.50
2018-07-14T02:32:31.420Z,57.70
2018-07-14T02:35:00.123Z,57.80
2018-07-14T02:37:28.874Z,57.90
2018-07-14T02:39:57.425Z,57.90
2018-07-14T02:42:26.072Z,57.90
2018-07-14T02:44:54.746Z,57.90
2018-07-14T02:47:23.332Z,57.90
2018-07-14T02:49:52.307Z,58.00
2018-07-14T02:52:20.972Z,58.20
2018-07-14T02:54:50.049Z,58.20
2018-07-14T02:57:19.128Z,58.20
2018-07-14T02:59:48.066Z,58.20
2018-07-14T03:02:17.122Z,58.40
2018-07-14T03:04:45.900Z,58.40
2018-07-14T03:07:14.495Z,58.50
2018-07-14T03:09:43.335Z,58.50
2018-07-14T03:12:12.036Z,58.50
2018-07-14T03:14:40.853Z,58.60
2018-07-14T03:17:09.430Z,58.70
2018-07-14T03:19:38.985Z,58.60
2018-07-14T03:22:07.859Z,58.70
2018-07-14T03:24:36.460Z,59.20
2018-07-14T03:27:05.441Z,58.70
2018-07-14T03:29:33.964Z,58.90
2018-07-14T03:32:02.535Z,59.00
2018-07-14T03:34:31.121Z,58.90
2018-07-14T03:36:59.669Z,59.10
2018-07-14T03:39:28.450Z,59.20
2018-07-14T03:41:57.027Z,59.30
2018-07-14T03:44:25.584Z,59.20
2018-07-14T03:46:54.106Z,59.30
2018-07-14T03:49:22.710Z,59.30
2018-07-14T03:51:51.713Z,59.40
2018-07-14T03:54:23.232Z,59.20
2018-07-14T03:56:52.577Z,59.10
2018-07-14T03:59:21.187Z,59.00
2018-07-14T04:01:49.724Z,59.20
2018-07-14T04:04:18.456Z,59.20
2018-07-14T04:09:15.231Z,59.40
2018-07-14T04:11:43.781Z,59.50
2018-07-14T04:14:12.261Z,59.50
2018-07-14T04:16:40.760Z,59.50
2018-07-14T04:19:09.336Z,59.60
2018-07-14T04:21:37.977Z,59.60
2018-07-14T04:24:06.675Z,59.60
2018-07-14T04:26:35.238Z,59.60
2018-07-14T04:29:04.167Z,59.90
2018-07-14T04:31:32.686Z,60.10
2018-07-14T04:34:01.267Z,60.10
2018-07-14T04:36:30.335Z,60.20
2018-07-14T04:38:58.911Z,60.20
2018-07-14T04:41:27.561Z,60.30
2018-07-14T04:43:56.091Z,60.40
2018-07-14T04:46:24.742Z,60.60
2018-07-14T04:48:53.300Z,60.60
2018-07-14T04:51:21.932Z,60.90
2018-07-14T04:53:50.885Z,61.10
2018-07-14T04:56:19.393Z,61.20
2018-07-14T04:58:48.499Z,61.90
2018-07-14T05:03:45.313Z,61.70
2018-07-14T05:06:13.765Z,62.40
2018-07-14T05:08:42.294Z,61.30
2018-07-14T05:11:11.108Z,61.10
2018-07-14T05:13:40.756Z,60.90
2018-07-14T05:16:09.317Z,60.80
2018-07-14T05:18:37.924Z,61.40
2018-07-14T05:21:06.730Z,61.50
2018-07-14T05:23:35.268Z,62.60
2018-07-14T05:26:03.836Z,61.60
2018-07-14T05:28:32.396Z,61.70
2018-07-14T05:31:00.917Z,61.70
2018-07-14T05:33:29.874Z,61.70
2018-07-14T05:35:58.432Z,61.70
2018-07-14T05:38:26.958Z,61.50
2018-07-14T05:40:55.522Z,61.30
2018-07-14T05:43:24.064Z,62.50
2018-07-14T05:45:52.680Z,61.60
2018-07-14T05:48:21.281Z,61.70
2018-07-14T05:50:50.112Z,62.10
2018-07-14T05:53:18.776Z,62.00
2018-07-14T05:55:53.678Z,61.80
2018-07-14T05:58:22.387Z,61.90
2018-07-14T06:00:51.009Z,62.10
2018-07-14T06:03:20.063Z,62.00
2018-07-14T06:05:48.644Z,61.90
2018-07-14T06:08:17.214Z,62.10
2018-07-14T06:10:46.175Z,62.20
2018-07-14T06:13:14.758Z,62.30
2018-07-14T06:15:43.448Z,62.40
2018-07-14T06:18:12.099Z,62.40
2018-07-14T06:20:40.670Z,62.70
2018-07-14T06:23:09.208Z,62.80
2018-07-14T06:25:38.222Z,63.00
2018-07-14T06:28:06.766Z,62.80
2018-07-14T06:30:35.353Z,62.70
2018-07-14T06:33:04.112Z,62.40
2018-07-14T06:35:32.735Z,62.30
2018-07-14T06:38:01.653Z,62.00
2018-07-14T06:40:30.452Z,61.70
2018-07-14T06:42:59.236Z,61.40
2018-07-14T06:45:27.837Z,60.60
2018-07-14T06:47:56.648Z,60.40
2018-07-14T06:50:25.244Z,60.00
2018-07-14T06:52:53.989Z,60.10
2018-07-14T06:55:22.541Z,59.90
2018-07-14T06:57:51.157Z,59.80
2018-07-14T07:00:20.008Z,59.60
2018-07-14T07:02:49.323Z,59.30
2018-07-14T07:05:18.271Z,59.10
2018-07-14T07:07:46.948Z,58.80
2018-07-14T07:10:17.409Z,58.50
2018-07-14T07:12:49.650Z,58.10
2018-07-14T07:15:28.137Z,57.90
2018-07-14T07:17:56.824Z,58.10
2018-07-14T07:20:25.782Z,58.20
2018-07-14T07:22:55.442Z,57.90
2018-07-14T07:25:24.967Z,58.00
2018-07-14T07:27:54.307Z,57.90
2018-07-14T07:30:23.771Z,57.80
2018-07-14T07:32:52.850Z,57.20
2018-07-14T07:35:24.748Z,57.10
2018-07-14T07:37:56.069Z,56.70
2018-07-14T07:40:26.047Z,57.10
2018-07-14T07:42:55.178Z,56.40
2018-07-14T07:45:25.664Z,56.40
2018-07-14T07:47:54.681Z,56.20
2018-07-14T07:50:24.921Z,56.10
2018-07-14T07:52:54.928Z,56.00
2018-07-14T07:55:23.834Z,56.00
2018-07-14T07:57:53.475Z,55.70
2018-07-14T08:00:22.760Z,55.50
2018-07-14T08:02:52.324Z,55.20
2018-07-14T08:05:22.883Z,54.80
2018-07-14T08:07:52.364Z,54.40
2018-07-14T08:10:20.982Z,54.50
2018-07-14T08:12:49.648Z,54.50
2018-07-14T08:15:18.358Z,53.70
2018-07-14T08:17:47.132Z,53.50
2018-07-14T08:20:15.716Z,53.50
2018-07-14T08:22:44.339Z,53.40
2018-07-14T08:25:13.022Z,53.60
2018-07-14T08:30:10.254Z,53.20
2018-07-14T08:32:38.884Z,52.70
2018-07-14T08:35:07.701Z,52.60
2018-07-14T08:37:37.114Z,52.40
2018-07-14T08:40:05.723Z,52.40
2018-07-14T08:42:34.760Z,51.50
2018-07-14T08:45:03.503Z,51.10
2018-07-14T08:47:32.090Z,50.70
2018-07-14T08:50:00.603Z,50.30
2018-07-14T08:52:29.409Z,49.90
2018-07-14T08:54:57.964Z,50.10
2018-07-14T08:57:26.644Z,48.50
2018-07-14T08:59:55.281Z,48.10
2018-07-14T09:02:23.976Z,48.00
2018-07-14T09:04:53.153Z,47.80
2018-07-14T09:07:22.177Z,47.80
2018-07-14T09:09:50.711Z,48.00
2018-07-14T09:12:19.307Z,47.20
2018-07-14T09:14:47.907Z,46.50
2018-07-14T09:17:16.489Z,45.80
2018-07-14T09:19:45.380Z,46.70
2018-07-14T09:22:13.981Z,47.00
2018-07-14T09:24:42.644Z,46.60
2018-07-14T09:27:11.148Z,46.70
2018-07-14T09:29:40.247Z,46.60
2018-07-14T09:32:08.925Z,46.40
2018-07-14T09:34:37.552Z,44.80
2018-07-14T09:37:06.362Z,44.40
2018-07-14T09:39:35.385Z,44.80
2018-07-14T09:42:04.033Z,45.30
2018-07-14T09:44:32.645Z,45.20
2018-07-14T09:47:01.247Z,44.80
2018-07-14T09:49:30.043Z,44.30
2018-07-14T09:51:58.879Z,44.60
2018-07-14T09:54:27.764Z,44.50
2018-07-14T09:56:57.068Z,44.20
2018-07-14T09:59:27.094Z,44.70
2018-07-14T10:01:56.327Z,44.80
2018-07-14T10:04:25.750Z,44.50
2018-07-14T10:06:54.839Z,44.80
2018-07-14T10:09:23.856Z,44.80
2018-07-14T10:11:55.636Z,45.00
2018-07-14T10:14:25.008Z,44.80
2018-07-14T10:16:54.453Z,45.10
2018-07-14T10:19:26.463Z,45.10
2018-07-14T10:21:55.099Z,45.20
2018-07-14T10:24:23.598Z,45.80
2018-07-14T10:26:52.084Z,47.90
2018-07-14T10:29:20.676Z,49.30
2018-07-14T10:31:49.990Z,50.70
2018-07-14T10:34:20.285Z,51.40
2018-07-14T10:36:48.940Z,51.50
2018-07-14T10:39:19.276Z,52.00
2018-07-14T10:41:47.847Z,52.50
2018-07-14T10:46:45.207Z,53.40
2018-07-14T10:49:15.811Z,53.00
2018-07-14T10:51:44.378Z,52.10
2018-07-14T10:56:41.694Z,50.10
2018-07-14T10:59:10.237Z,49.90
2018-07-14T11:01:38.839Z,49.60
2018-07-14T11:04:07.357Z,49.60
2018-07-14T11:06:37.338Z,48.80
2018-07-14T11:09:06.931Z,48.60
2018-07-14T11:11:35.553Z,48.90
2018-07-14T11:14:04.465Z,47.60
2018-07-14T11:16:32.977Z,47.00
2018-07-14T11:19:01.548Z,45.70
2018-07-14T11:21:30.413Z,44.50
2018-07-14T11:23:59.057Z,43.70
2018-07-14T11:26:27.561Z,43.70
2018-07-14T11:28:56.094Z,43.30
2018-07-14T11:31:24.759Z,43.60
2018-07-14T11:33:55.073Z,44.30
2018-07-14T11:36:23.633Z,43.70
2018-07-14T11:38:52.262Z,43.40
2018-07-14T11:41:23.338Z,43.50
2018-07-14T11:43:52.087Z,43.50
2018-07-14T11:46:21.132Z,43.50
2018-07-14T11:48:50.228Z,43.80
2018-07-14T11:51:18.889Z,43.70
2018-07-14T11:53:47.524Z,42.60
2018-07-14T11:56:16.227Z,42.70
2018-07-14T11:58:44.772Z,42.90
2018-07-14T12:01:13.450Z,42.60
2018-07-14T12:03:42.347Z,42.30
2018-07-14T12:06:10.937Z,42.70
2018-07-14T12:08:40.418Z,41.40
2018-07-14T12:11:09.482Z,42.50
2018-07-14T12:13:38.252Z,42.20
2018-07-14T12:16:07.192Z,42.60
2018-07-14T12:18:35.741Z,40.80
2018-07-14T12:21:04.313Z,40.90
2018-07-14T12:23:32.904Z,41.20
2018-07-14T12:26:01.432Z,40.90
2018-07-14T12:28:30.010Z,41.50
2018-07-14T12:33:27.079Z,42.20
2018-07-14T12:35:55.650Z,43.50
2018-07-14T12:38:24.639Z,44.50
2018-07-14T12:40:53.236Z,45.40
2018-07-14T12:43:21.860Z,46.40
2018-07-14T12:45:50.435Z,46.60
2018-07-14T12:48:19.013Z,46.90
2018-07-14T12:50:47.835Z,46.00
2018-07-14T12:53:16.424Z,46.10
2018-07-14T12:55:45.033Z,46.00
2018-07-14T12:58:13.639Z,46.30
2018-07-14T13:00:42.322Z,44.80
2018-07-14T13:03:10.882Z,44.80
2018-07-14T13:05:39.880Z,42.30
2018-07-14T13:08:08.526Z,41.20
2018-07-14T13:10:37.070Z,41.00
2018-07-14T13:13:05.688Z,41.50
2018-07-14T13:15:35.004Z,42.10
2018-07-14T13:18:03.749Z,42.20
2018-07-14T13:20:32.391Z,42.60
2018-07-14T13:23:01.104Z,42.40
2018-07-14T13:25:29.744Z,42.70
2018-07-14T13:27:58.380Z,42.60
2018-07-14T13:30:27.088Z,42.90
2018-07-14T13:32:55.734Z,42.60
2018-07-14T13:35:24.495Z,42.40
2018-07-14T13:37:53.536Z,43.40
2018-07-14T13:40:22.313Z,43.00
2018-07-14T13:42:51.881Z,42.90
2018-07-14T13:45:20.537Z,42.90
2018-07-14T13:47:49.774Z,42.70
2018-07-14T13:50:19.418Z,42.50
2018-07-14T13:52:47.990Z,40.80
2018-07-14T13:55:17.076Z,41.40
2018-07-14T13:57:46.628Z,41.40
2018-07-14T14:00:16.513Z,40.70
2018-07-14T14:02:45.141Z,41.10
2018-07-14T14:05:13.794Z,40.50
2018-07-14T14:07:42.379Z,40.60
2018-07-14T14:10:10.882Z,40.10
2018-07-14T14:12:39.816Z,40.00
2018-07-14T14:15:08.458Z,39.70
2018-07-14T14:17:37.071Z,38.90
2018-07-14T14:20:05.857Z,39.70
2018-07-14T14:22:34.517Z,39.90
2018-07-14T14:25:03.203Z,41.10
2018-07-14T14:27:31.760Z,40.80
2018-07-14T14:30:00.324Z,40.40
2018-07-14T14:32:28.989Z,39.80
2018-07-14T14:35:00.255Z,40.20
2018-07-14T14:37:28.763Z,39.50
2018-07-14T14:39:57.315Z,39.30
2018-07-14T14:42:25.897Z,39.90
2018-07-14T14:44:54.553Z,40.10
2018-07-14T14:47:23.111Z,40.50
2018-07-14T14:49:51.754Z,41.40
2018-07-14T14:52:20.796Z,41.50
2018-07-14T14:54:49.840Z,41.30
2018-07-14T14:57:18.879Z,41.20
2018-07-14T14:59:47.832Z,41.10
2018-07-14T15:02:16.777Z,41.50
2018-07-14T15:04:45.424Z,41.70
2018-07-14T15:07:13.962Z,41.80
2018-07-14T15:09:42.530Z,41.90
2018-07-14T15:12:11.062Z,42.50
2018-07-14T15:14:40.837Z,42.00
2018-07-14T15:17:09.378Z,42.20
2018-07-14T15:19:38.047Z,42.50
2018-07-14T15:22:06.642Z,42.00
2018-07-14T15:24:35.222Z,42.00
2018-07-14T15:27:03.812Z,41.90
2018-07-14T15:29:32.825Z,41.30
2018-07-14T15:32:01.679Z,41.50
2018-07-14T15:34:30.648Z,41.80
2018-07-14T15:36:59.248Z,41.50
2018-07-14T15:39:27.975Z,41.70
2018-07-14T15:41:56.526Z,41.70
2018-07-14T15:44:25.556Z,42.00
2018-07-14T15:46:54.047Z,42.20
2018-07-14T15:49:22.581Z,42.40
2018-07-14T15:51:51.541Z,42.20
2018-07-14T15:54:20.240Z,42.50
2018-07-14T15:56:48.784Z,42.60
2018-07-14T15:59:17.771Z,42.80
2018-07-14T16:01:46.875Z,42.80
2018-07-14T16:07:47.255Z,43.60
2018-07-14T16:10:15.849Z,44.90
2018-07-14T16:12:44.420Z,44.80
2018-07-14T16:15:12.926Z,44.90
2018-07-14T16:17:41.379Z,44.70
2018-07-14T16:20:09.941Z,45.10
2018-07-14T16:22:38.528Z,45.60
2018-07-14T16:25:07.227Z,45.70
2018-07-14T16:27:35.748Z,46.00
2018-07-14T16:30:04.303Z,45.70
2018-07-14T16:32:32.792Z,45.90
2018-07-14T16:35:01.479Z,45.70
2018-07-14T16:37:30.070Z,45.60
2018-07-14T16:39:59.031Z,45.30
2018-07-14T16:42:27.681Z,45.50
2018-07-14T16:44:56.202Z,45.20
2018-07-14T16:47:24.736Z,45.40
2018-07-14T16:49:53.588Z,45.70
2018-07-14T16:52:22.152Z,45.30
2018-07-14T16:54:51.182Z,45.20
2018-07-14T16:57:21.036Z,45.00
2018-07-14T16:59:49.601Z,44.60
2018-07-14T17:02:18.068Z,44.10
2018-07-14T17:04:46.631Z,42.90
2018-07-14T17:07:15.560Z,42.20
2018-07-14T17:09:44.083Z,42.50
2018-07-14T17:12:12.573Z,42.60
2018-07-14T17:14:41.156Z,42.80
2018-07-14T17:17:09.900Z,42.90
2018-07-14T17:19:38.808Z,43.20
2018-07-14T17:22:07.961Z,42.80
2018-07-14T17:24:36.904Z,42.30
2018-07-14T17:27:05.585Z,42.10
2018-07-14T17:32:08.868Z,42.50
2018-07-14T17:34:37.538Z,42.30
2018-07-14T17:37:06.285Z,41.50
2018-07-14T17:39:34.805Z,41.50
2018-07-14T17:42:03.447Z,41.20
2018-07-14T17:44:31.962Z,41.50
2018-07-14T17:47:00.493Z,42.20
2018-07-14T17:49:29.049Z,42.70
2018-07-14T17:51:57.658Z,42.50
2018-07-14T17:54:26.148Z,42.50
2018-07-14T17:56:54.767Z,42.60
2018-07-14T17:59:23.242Z,42.00
2018-07-14T18:01:51.749Z,42.20
2018-07-14T18:04:20.297Z,42.20
2018-07-14T18:06:49.282Z,42.00
2018-07-14T18:09:17.985Z,42.10
2018-07-14T18:11:47.558Z,42.00
2018-07-14T18:14:16.057Z,41.80
2018-07-14T18:16:44.967Z,41.60
2018-07-14T18:21:42.102Z,42.00
2018-07-14T18:24:10.916Z,42.00
2018-07-14T18:26:39.627Z,41.80
2018-07-14T18:29:08.177Z,42.10
2018-07-14T18:31:36.757Z,42.30
2018-07-14T18:34:06.173Z,42.40
2018-07-14T18:36:34.686Z,42.70
2018-07-14T18:39:03.943Z,42.70
2018-07-14T18:41:32.602Z,42.80
2018-07-14T18:44:01.249Z,43.10
2018-07-14T18:46:30.501Z,43.40
2018-07-14T18:48:59.066Z,43.40
2018-07-14T18:51:28.770Z,43.00
2018-07-14T18:53:57.464Z,43.10
2018-07-14T18:56:26.677Z,43.50
2018-07-14T18:58:55.489Z,43.40
2018-07-14T19:01:24.569Z,43.60
2018-07-14T19:03:53.886Z,43.80
2018-07-14T19:06:23.300Z,44.20
2018-07-14T19:08:52.029Z,44.20
2018-07-14T19:11:20.670Z,44.60
2018-07-14T19:13:49.591Z,44.70
2018-07-14T19:16:18.510Z,44.80
2018-07-14T19:18:47.117Z,45.10
2018-07-14T19:21:15.939Z,45.30
2018-07-14T19:23:44.600Z,45.40
2018-07-14T19:26:13.275Z,45.70
2018-07-14T19:28:41.756Z,45.80
2018-07-14T19:31:10.715Z,46.00
2018-07-14T19:33:40.209Z,46.20
2018-07-14T19:36:08.836Z,46.40
2018-07-14T19:38:37.472Z,46.40
2018-07-14T19:41:06.394Z,46.50
2018-07-14T19:43:34.948Z,46.70
2018-07-14T19:46:03.570Z,46.80
2018-07-14T19:48:32.172Z,47.00
2018-07-14T19:53:29.163Z,47.00
2018-07-14T19:55:57.940Z,47.10
2018-07-14T19:58:26.461Z,47.20
2018-07-14T20:00:55.060Z,47.20
2018-07-14T20:03:23.577Z,47.20
2018-07-14T20:05:52.093Z,47.20
2018-07-14T20:08:20.616Z,47.30
2018-07-14T20:10:49.566Z,47.30
2018-07-14T20:13:19.098Z,47.40
2018-07-14T20:15:47.677Z,47.50
2018-07-14T20:18:18.574Z,47.70
2018-07-14T20:23:22.021Z,47.60
2018-07-14T20:25:54.805Z,47.80
2018-07-14T20:28:23.387Z,47.80
2018-07-14T20:30:51.963Z,47.90
2018-07-14T20:33:20.601Z,47.90
2018-07-14T20:35:49.204Z,47.90
2018-07-14T20:38:17.891Z,48.00
2018-07-14T20:40:47.746Z,48.10
2018-07-14T20:43:16.617Z,48.20
2018-07-14T20:45:45.189Z,48.30
2018-07-14T20:48:13.765Z,49.10
2018-07-14T20:50:42.534Z,48.50
2018-07-14T20:53:11.692Z,48.50
2018-07-14T20:55:40.499Z,49.30
2018-07-14T20:58:09.402Z,48.70
2018-07-14T21:00:39.230Z,48.80
2018-07-14T21:03:07.855Z,48.90
2018-07-14T21:05:36.416Z,49.00
2018-07-14T21:08:05.250Z,49.10
2018-07-14T21:10:33.871Z,49.20
2018-07-14T21:13:02.989Z,49.40
2018-07-14T21:15:31.617Z,49.60
2018-07-14T21:18:00.206Z,49.60
2018-07-14T21:20:28.789Z,49.70
2018-07-14T21:22:57.447Z,49.70
2018-07-14T21:25:26.021Z,49.80
2018-07-14T21:27:54.542Z,50.00
2018-07-14T21:30:23.436Z,50.00
2018-07-14T21:32:52.047Z,50.00
2018-07-14T21:35:20.635Z,50.00
2018-07-14T21:37:49.221Z,50.00
2018-07-14T21:40:18.111Z,50.00
2018-07-14T21:42:46.712Z,50.00
2018-07-14T21:45:16.072Z,50.10
2018-07-14T21:47:44.631Z,50.10
2018-07-14T21:50:13.351Z,50.20
2018-07-14T21:52:41.915Z,50.10
2018-07-14T21:55:10.692Z,50.30
2018-07-14T21:57:40.522Z,50.30
2018-07-14T22:00:09.806Z,50.40
2018-07-14T22:02:39.442Z,50.40
2018-07-14T22:05:08.030Z,50.50
2018-07-14T22:07:36.554Z,50.40
2018-07-14T22:10:05.114Z,50.50
2018-07-14T22:12:33.725Z,50.50
2018-07-14T22:15:02.381Z,50.70
2018-07-14T22:17:30.883Z,50.70
2018-07-14T22:19:59.470Z,50.70
2018-07-14T22:22:28.213Z,50.80
2018-07-14T22:24:56.832Z,51.00
2018-07-14T22:27:25.624Z,51.00
2018-07-14T22:29:54.264Z,51.10
2018-07-14T22:32:23.312Z,51.10
2018-07-14T22:34:51.920Z,51.20
2018-07-14T22:37:21.854Z,51.30
2018-07-14T22:39:50.484Z,51.30
2018-07-14T22:42:19.552Z,51.20
2018-07-14T22:44:48.195Z,51.30
2018-07-14T22:47:17.278Z,51.30
2018-07-14T22:49:46.326Z,51.40
2018-07-14T22:52:14.947Z,51.50
2018-07-14T22:57:11.645Z,51.70
2018-07-14T22:59:40.440Z,51.70
2018-07-14T23:02:09.024Z,51.80
2018-07-14T23:04:37.770Z,52.00
2018-07-14T23:07:06.360Z,52.00
2018-07-14T23:09:35.013Z,52.10
2018-07-14T23:12:03.565Z,52.20
2018-07-14T23:14:32.124Z,52.20
2018-07-14T23:17:00.700Z,52.20
2018-07-14T23:19:29.436Z,52.30
2018-07-14T23:21:59.678Z,52.30
2018-07-14T23:24:28.657Z,52.40
2018-07-14T23:26:57.344Z,52.50
2018-07-14T23:29:27.618Z,52.50
2018-07-14T23:31:57.031Z,52.60
2018-07-14T23:34:26.954Z,52.70
2018-07-14T23:36:56.952Z,52.70
2018-07-14T23:39:27.008Z,52.80
2018-07-14T23:41:55.617Z,52.80
2018-07-14T23:44:24.186Z,53.00
2018-07-14T23:46:54.118Z,53.00
2018-07-14T23:49:23.792Z,53.20
2018-07-14T23:51:52.764Z,53.20
2018-07-14T23:54:21.424Z,53.30
2018-07-14T23:56:50.201Z,53.40
2018-07-14T23:59:18.825Z,53.60
